createdAt,value
2024-04-30T00:00:48.269Z,51.59
2024-04-30T00:03:15.750Z,51.72
2024-04-30T00:05:45.498Z,52.11
2024-04-30T00:08:13.280Z,51.61
2024-04-30T00:10:40.734Z,51.93
2024-04-30T00:13:08.237Z,52.33
2024-04-30T00:15:35.743Z,52.11
2024-04-30T00:18:03.184Z,52.26
2024-04-30T00:20:30.857Z,51.80
2024-04-30T00:22:58.248Z,52.12
2024-04-30T00:25:25.727Z,52.23
2024-04-30T00:27:53.128Z,52.36
2024-04-30T00:30:20.498Z,52.45
2024-04-30T00:32:47.950Z,52.29
2024-04-30T00:35:15.436Z,52.47
2024-04-30T00:37:44.226Z,52.87
2024-04-30T00:40:12.393Z,52.87
2024-04-30T00:42:39.935Z,53.45
2024-04-30T00:45:07.823Z,53.38
2024-04-30T00:47:35.343Z,53.31
2024-04-30T00:50:03.609Z,53.67
2024-04-30T00:52:32.520Z,53.88
2024-04-30T00:54:59.987Z,53.95
2024-04-30T00:57:27.628Z,54.00
2024-04-30T00:59:55.031Z,54.13
2024-04-30T01:02:23.427Z,54.01
2024-04-30T01:04:57.581Z,53.50
2024-04-30T01:07:25.449Z,53.87
2024-04-30T01:09:53.130Z,54.00
2024-04-30T01:12:21.954Z,53.65
2024-04-30T01:14:49.491Z,53.37
2024-04-30T01:17:16.961Z,53.80
2024-04-30T01:19:44.379Z,53.40
2024-04-30T01:22:11.913Z,53.31
2024-04-30T01:24:39.382Z,53.60
2024-04-30T01:27:06.794Z,53.52
2024-04-30T01:29:34.293Z,53.57
2024-04-30T01:32:01.842Z,53.54
2024-04-30T01:34:29.560Z,53.26
2024-04-30T01:36:57.146Z,53.19
2024-04-30T01:39:24.571Z,52.81
2024-04-30T01:41:51.977Z,52.72
2024-04-30T01:44:19.529Z,52.49
2024-04-30T01:46:46.994Z,52.73
2024-04-30T01:49:14.497Z,52.67
2024-04-30T01:51:41.954Z,52.46
2024-04-30T01:54:09.607Z,52.13
2024-04-30T01:56:37.033Z,52.04
2024-04-30T01:59:04.497Z,51.96
2024-04-30T02:01:31.924Z,51.76
2024-04-30T02:03:59.409Z,51.78
2024-04-30T02:06:26.927Z,51.13
2024-04-30T02:08:54.304Z,50.95
2024-04-30T02:11:22.577Z,50.84
2024-04-30T02:13:50.040Z,50.74
2024-04-30T02:16:17.576Z,50.11
2024-04-30T02:18:45.036Z,50.58
2024-04-30T02:21:12.439Z,50.11
2024-04-30T02:23:39.919Z,49.43
2024-04-30T02:26:08.169Z,49.35
2024-04-30T02:28:35.733Z,49.27
2024-04-30T02:31:21.696Z,48.80
2024-04-30T02:34:07.563Z,48.54
2024-04-30T02:36:34.958Z,47.83
2024-04-30T02:39:02.648Z,49.66
2024-04-30T02:41:30.055Z,50.14
2024-04-30T02:43:59.028Z,47.42
2024-04-30T02:46:26.481Z,45.57
2024-04-30T02:48:54.126Z,42.28
2024-04-30T02:51:22.053Z,41.02
2024-04-30T02:53:49.599Z,38.22
2024-04-30T02:56:17.042Z,37.53
2024-04-30T02:58:44.514Z,36.66
2024-04-30T03:01:12.859Z,34.47
2024-04-30T03:03:44.175Z,34.17
2024-04-30T03:06:11.709Z,31.68
2024-04-30T03:08:39.705Z,30.42
2024-04-30T03:11:07.447Z,29.76
2024-04-30T03:13:35.100Z,29.19
2024-04-30T03:16:04.080Z,27.68
2024-04-30T03:18:31.552Z,27.35
2024-04-30T03:20:59.535Z,27.24
2024-04-30T03:23:26.938Z,25.92
2024-04-30T03:25:54.384Z,24.71
2024-04-30T03:28:21.797Z,25.09
2024-04-30T03:30:49.361Z,24.37
2024-04-30T03:33:16.972Z,23.95
2024-04-30T03:35:44.506Z,25.05
2024-04-30T03:38:12.726Z,24.28
2024-04-30T03:40:40.487Z,22.35
2024-04-30T03:43:07.995Z,20.71
2024-04-30T03:45:35.500Z,21.31
2024-04-30T03:48:03.165Z,21.20
2024-04-30T03:50:30.708Z,21.11
2024-04-30T03:52:58.200Z,21.44
2024-04-30T03:55:25.648Z,21.36
2024-04-30T03:57:53.160Z,20.41
2024-04-30T04:00:20.575Z,19.39
2024-04-30T04:02:48.216Z,20.85
2024-04-30T04:05:15.677Z,20.51
2024-04-30T04:07:43.088Z,19.62
2024-04-30T04:10:10.627Z,25.29
2024-04-30T04:12:56.576Z,19.85
2024-04-30T04:15:24.021Z,18.09
2024-04-30T04:17:51.690Z,18.67
2024-04-30T04:20:19.372Z,19.39
2024-04-30T04:22:46.850Z,16.85
2024-04-30T04:25:14.519Z,18.88
2024-04-30T04:27:42.027Z,21.96
2024-04-30T04:30:09.644Z,17.37
2024-04-30T04:32:37.344Z,17.80
2024-04-30T04:35:04.918Z,16.65
2024-04-30T04:37:32.339Z,17.22
2024-04-30T04:39:59.900Z,16.55
2024-04-30T04:42:27.588Z,18.19
2024-04-30T04:44:55.042Z,16.26
2024-04-30T04:47:22.651Z,18.31
2024-04-30T04:49:50.203Z,21.62
2024-04-30T04:52:17.751Z,15.80
2024-04-30T04:54:45.223Z,16.80
2024-04-30T04:57:12.746Z,15.42
2024-04-30T04:59:40.213Z,14.65
2024-04-30T05:02:07.888Z,14.21
2024-04-30T05:04:35.313Z,13.74
2024-04-30T05:07:03.065Z,13.81
2024-04-30T05:09:30.703Z,13.39
2024-04-30T05:11:58.291Z,14.58
2024-04-30T05:14:25.717Z,12.57
2024-04-30T05:16:53.186Z,13.05
2024-04-30T05:19:20.634Z,13.46
2024-04-30T05:21:48.066Z,12.30
2024-04-30T05:24:15.749Z,12.50
2024-04-30T05:26:43.197Z,12.64
2024-04-30T05:29:10.632Z,12.47
2024-04-30T05:31:39.559Z,13.80
2024-04-30T05:34:07.414Z,12.17
2024-04-30T05:36:34.901Z,11.80
2024-04-30T05:39:03.378Z,11.49
2024-04-30T05:41:31.310Z,11.92
2024-04-30T05:43:58.739Z,11.48
2024-04-30T05:46:26.333Z,11.37
2024-04-30T05:48:54.727Z,11.30
2024-04-30T05:51:22.130Z,13.19
2024-04-30T05:53:51.035Z,13.43
2024-04-30T05:56:19.879Z,13.35
2024-04-30T05:58:47.403Z,14.17
2024-04-30T06:01:15.073Z,12.40
2024-04-30T06:03:42.733Z,14.75
2024-04-30T06:06:10.521Z,15.83
2024-04-30T06:08:41.468Z,10.82
2024-04-30T06:11:09.806Z,11.33
2024-04-30T06:13:37.442Z,11.54
2024-04-30T06:16:05.144Z,11.06
2024-04-30T06:18:32.704Z,14.00
2024-04-30T06:21:00.338Z,11.82
2024-04-30T06:23:27.719Z,9.73
2024-04-30T06:25:55.200Z,10.10
2024-04-30T06:28:22.847Z,9.42
2024-04-30T06:30:50.255Z,9.83
2024-04-30T06:33:17.741Z,13.82
2024-04-30T06:35:45.264Z,9.98
2024-04-30T06:38:13.117Z,10.49
2024-04-30T06:40:40.628Z,11.22
2024-04-30T06:43:08.238Z,11.14
2024-04-30T06:45:35.678Z,12.32
2024-04-30T06:48:03.316Z,11.04
2024-04-30T06:50:30.740Z,13.38
2024-04-30T06:52:58.181Z,13.68
2024-04-30T06:55:25.629Z,13.35
2024-04-30T06:57:53.185Z,13.56
2024-04-30T07:00:20.598Z,12.20
2024-04-30T07:02:48.021Z,12.58
2024-04-30T07:05:15.788Z,10.15
2024-04-30T07:07:43.458Z,9.38
2024-04-30T07:10:10.999Z,10.29
2024-04-30T07:12:38.392Z,9.47
2024-04-30T07:15:05.954Z,13.67
2024-04-30T07:17:34.577Z,13.62
2024-04-30T07:20:02.214Z,9.99
2024-04-30T07:22:30.792Z,9.58
2024-04-30T07:24:58.251Z,13.18
2024-04-30T07:27:28.624Z,11.18
2024-04-30T07:29:56.454Z,14.51
2024-04-30T07:32:24.255Z,13.09
2024-04-30T07:34:54.376Z,11.03
2024-04-30T07:37:21.828Z,14.12
2024-04-30T07:39:55.411Z,10.42
2024-04-30T07:42:22.822Z,9.36
2024-04-30T07:44:50.222Z,10.30
2024-04-30T07:47:29.824Z,9.17
2024-04-30T07:50:34.055Z,14.12
2024-04-30T07:53:01.673Z,14.69
2024-04-30T07:55:29.191Z,9.22
2024-04-30T07:57:58.126Z,9.91
2024-04-30T08:00:25.818Z,10.35
2024-04-30T08:02:54.339Z,10.52
2024-04-30T08:05:23.103Z,10.08
2024-04-30T08:07:50.702Z,10.72
2024-04-30T08:10:18.417Z,13.41
2024-04-30T08:12:46.105Z,13.78
2024-04-30T08:15:13.697Z,11.24
2024-04-30T08:17:43.300Z,14.69
2024-04-30T08:20:10.788Z,10.82
2024-04-30T08:22:38.626Z,11.12
2024-04-30T08:25:06.205Z,10.97
2024-04-30T08:27:33.678Z,11.01
2024-04-30T08:30:01.192Z,11.45
2024-04-30T08:32:31.669Z,10.88
2024-04-30T08:34:59.119Z,11.15
2024-04-30T08:37:27.628Z,11.44
2024-04-30T08:39:55.670Z,12.23
2024-04-30T08:42:23.945Z,11.54
2024-04-30T08:44:52.724Z,12.03
2024-04-30T08:47:20.860Z,12.13
2024-04-30T08:49:58.287Z,12.62
2024-04-30T08:52:32.925Z,12.43
2024-04-30T08:55:01.243Z,12.24
2024-04-30T08:57:30.084Z,12.26
2024-04-30T08:59:57.529Z,12.02
2024-04-30T09:02:25.121Z,14.37
2024-04-30T09:04:52.851Z,12.41
2024-04-30T09:07:20.586Z,14.15
2024-04-30T09:09:58.342Z,12.64
2024-04-30T09:12:25.991Z,13.32
2024-04-30T09:14:53.527Z,13.18
2024-04-30T09:17:24.001Z,13.66
2024-04-30T09:19:51.512Z,13.79
2024-04-30T09:22:18.996Z,13.78
2024-04-30T09:24:47.395Z,14.12
2024-04-30T09:27:15.376Z,14.36
2024-04-30T09:29:44.736Z,14.59
2024-04-30T09:32:16.257Z,15.35
2024-04-30T09:34:44.463Z,15.33
2024-04-30T09:37:21.548Z,16.12
2024-04-30T09:39:54.436Z,15.44
2024-04-30T09:42:27.168Z,15.77
2024-04-30T09:44:57.634Z,15.54
2024-04-30T09:47:25.854Z,14.80
2024-04-30T09:49:54.556Z,14.93
2024-04-30T09:52:23.215Z,14.53
2024-04-30T09:54:51.997Z,14.74
2024-04-30T09:57:20.414Z,15.30
2024-04-30T09:59:48.196Z,15.30
2024-04-30T10:02:16.617Z,15.30
2024-04-30T10:04:45.333Z,15.88
2024-04-30T10:07:13.084Z,16.20
2024-04-30T10:09:40.679Z,15.83
2024-04-30T10:12:08.224Z,16.16
2024-04-30T10:14:37.615Z,15.66
2024-04-30T10:17:06.027Z,15.05
2024-04-30T10:19:42.776Z,15.78
2024-04-30T10:22:20.078Z,15.59
2024-04-30T10:24:47.592Z,16.17
2024-04-30T10:27:24.788Z,15.81
2024-04-30T10:29:52.362Z,16.32
2024-04-30T10:32:20.039Z,15.42
2024-04-30T10:35:07.672Z,15.55
2024-04-30T10:37:35.146Z,15.28
2024-04-30T10:40:17.772Z,16.40
2024-04-30T10:42:45.924Z,15.45
2024-04-30T10:45:23.224Z,15.54
2024-04-30T10:47:50.760Z,16.57
2024-04-30T10:50:19.913Z,16.26
2024-04-30T10:52:48.346Z,15.22
2024-04-30T10:55:19.402Z,15.54
2024-04-30T10:57:46.977Z,17.03
2024-04-30T11:00:14.492Z,16.26
2024-04-30T11:02:49.808Z,16.68
2024-04-30T11:05:19.895Z,16.82
2024-04-30T11:08:00.064Z,16.86
2024-04-30T11:10:29.153Z,17.09
2024-04-30T11:12:57.555Z,16.35
2024-04-30T11:15:25.186Z,16.95
2024-04-30T11:17:52.981Z,17.22
2024-04-30T11:20:20.528Z,17.09
2024-04-30T11:22:48.123Z,17.43
2024-04-30T11:25:15.811Z,16.68
2024-04-30T11:27:43.303Z,17.60
2024-04-30T11:30:10.976Z,17.39
2024-04-30T11:32:38.727Z,17.54
2024-04-30T11:35:06.185Z,17.48
2024-04-30T11:37:34.660Z,17.84
2024-04-30T11:40:02.189Z,18.33
2024-04-30T11:42:34.779Z,18.46
2024-04-30T11:45:09.440Z,18.76
2024-04-30T11:47:36.914Z,18.69
2024-04-30T11:50:04.559Z,18.37
2024-04-30T11:52:32.031Z,18.28
2024-04-30T11:54:59.465Z,18.83
2024-04-30T11:57:26.880Z,19.30
2024-04-30T11:59:54.897Z,18.84
2024-04-30T12:02:22.346Z,18.77
2024-04-30T12:04:50.096Z,19.09
2024-04-30T12:07:17.750Z,18.91
2024-04-30T12:09:45.178Z,19.49
2024-04-30T12:12:12.647Z,19.47
2024-04-30T12:14:41.131Z,19.67
2024-04-30T12:17:08.719Z,19.82
2024-04-30T12:19:37.589Z,20.01
2024-04-30T12:22:05.236Z,19.87
2024-04-30T12:24:32.639Z,19.74
2024-04-30T12:27:00.125Z,19.37
2024-04-30T12:29:27.540Z,19.26
2024-04-30T12:31:54.925Z,19.50
2024-04-30T12:34:22.384Z,19.64
2024-04-30T12:36:49.978Z,20.28
2024-04-30T12:39:17.616Z,19.98
2024-04-30T12:41:45.087Z,20.38
2024-04-30T12:44:12.743Z,20.17
2024-04-30T12:46:40.178Z,19.85
2024-04-30T12:49:07.637Z,20.42
2024-04-30T12:51:35.080Z,20.40
2024-04-30T12:54:02.562Z,20.30
2024-04-30T12:56:30.117Z,20.22
2024-04-30T12:58:57.555Z,20.18
2024-04-30T13:01:26.340Z,20.56
2024-04-30T13:03:54.156Z,20.35
2024-04-30T13:06:21.678Z,20.81
2024-04-30T13:08:49.254Z,20.40
2024-04-30T13:11:16.834Z,20.70
2024-04-30T13:13:44.554Z,20.89
2024-04-30T13:16:12.152Z,20.98
2024-04-30T13:18:39.626Z,20.79
2024-04-30T13:21:07.903Z,20.34
2024-04-30T13:23:38.509Z,21.06
2024-04-30T13:26:06.007Z,21.29
2024-04-30T13:28:36.999Z,21.40
2024-04-30T13:31:04.545Z,21.35
2024-04-30T13:33:32.055Z,21.50
2024-04-30T13:35:59.602Z,21.97
2024-04-30T13:38:27.158Z,22.31
2024-04-30T13:40:54.921Z,22.01
2024-04-30T13:43:22.383Z,22.18
2024-04-30T13:45:49.835Z,22.24
2024-04-30T13:48:17.593Z,21.80
2024-04-30T13:50:45.175Z,22.68
2024-04-30T13:53:12.659Z,22.44
2024-04-30T13:55:40.182Z,22.52
2024-04-30T13:58:07.791Z,23.10
2024-04-30T14:00:35.462Z,22.40
2024-04-30T14:03:03.152Z,22.64
2024-04-30T14:05:30.648Z,22.69
2024-04-30T14:07:58.140Z,23.36
2024-04-30T14:10:25.594Z,22.94
2024-04-30T14:12:53.211Z,23.57
2024-04-30T14:15:20.680Z,24.11
2024-04-30T14:17:48.343Z,24.06
2024-04-30T14:20:16.008Z,23.89
2024-04-30T14:22:43.783Z,24.19
2024-04-30T14:25:11.383Z,24.36
2024-04-30T14:27:38.965Z,24.05
2024-04-30T14:30:06.862Z,24.72
2024-04-30T14:32:34.446Z,24.80
2024-04-30T14:35:02.357Z,25.20
2024-04-30T14:37:31.426Z,25.32
2024-04-30T14:39:58.856Z,24.81
2024-04-30T14:42:27.719Z,25.31
2024-04-30T14:44:55.716Z,25.38
2024-04-30T14:47:23.831Z,25.33
2024-04-30T14:49:51.425Z,25.16
2024-04-30T14:52:19.083Z,25.21
2024-04-30T14:54:47.217Z,25.48
2024-04-30T14:57:14.643Z,25.76
2024-04-30T14:59:42.095Z,26.23
2024-04-30T15:02:09.744Z,25.94
2024-04-30T15:04:37.261Z,25.31
2024-04-30T15:07:04.836Z,25.54
2024-04-30T15:09:35.303Z,25.73
2024-04-30T15:12:03.256Z,25.83
2024-04-30T15:14:30.781Z,26.09
2024-04-30T15:16:58.860Z,25.70
2024-04-30T15:19:26.714Z,25.41
2024-04-30T15:21:54.613Z,26.27
2024-04-30T15:24:22.085Z,25.34
2024-04-30T15:26:49.525Z,25.69
2024-04-30T15:29:17.287Z,25.82
2024-04-30T15:31:45.295Z,26.03
2024-04-30T15:34:12.799Z,26.57
2024-04-30T15:36:46.655Z,26.81
2024-04-30T15:39:18.289Z,26.92
2024-04-30T15:41:45.736Z,26.24
2024-04-30T15:44:13.624Z,27.48
2024-04-30T15:46:41.569Z,27.65
2024-04-30T15:49:11.505Z,27.77
2024-04-30T15:51:39.666Z,27.99
2024-04-30T15:54:09.907Z,27.98
2024-04-30T15:56:43.627Z,28.25
2024-04-30T15:59:16.369Z,28.55
2024-04-30T16:01:43.898Z,28.63
2024-04-30T16:04:12.210Z,28.66
2024-04-30T16:06:43.450Z,29.01
2024-04-30T16:09:10.902Z,29.49
2024-04-30T16:11:38.391Z,28.13
2024-04-30T16:14:05.841Z,28.91
2024-04-30T16:16:38.201Z,28.94
2024-04-30T16:19:05.878Z,29.17
2024-04-30T16:21:33.297Z,29.42
2024-04-30T16:24:00.880Z,29.53
2024-04-30T16:26:28.322Z,29.49
2024-04-30T16:28:55.805Z,29.83
2024-04-30T16:31:23.503Z,29.61
2024-04-30T16:33:51.596Z,29.84
2024-04-30T16:36:21.275Z,29.69
2024-04-30T16:38:50.353Z,29.94
2024-04-30T16:41:18.223Z,30.12
2024-04-30T16:43:45.633Z,30.41
2024-04-30T16:46:13.189Z,30.26
2024-04-30T16:48:41.299Z,30.47
2024-04-30T16:51:17.942Z,30.75
2024-04-30T16:53:45.592Z,30.89
2024-04-30T16:56:13.376Z,31.14
2024-04-30T16:58:40.822Z,30.96
2024-04-30T17:01:08.493Z,31.39
2024-04-30T17:03:40.179Z,31.67
2024-04-30T17:06:12.296Z,31.95
2024-04-30T17:08:40.638Z,31.97
2024-04-30T17:11:11.051Z,31.81
2024-04-30T17:13:44.587Z,31.93
2024-04-30T17:16:20.010Z,31.96
2024-04-30T17:18:47.843Z,31.92
2024-04-30T17:21:20.859Z,31.51
2024-04-30T17:23:49.458Z,32.16
2024-04-30T17:26:24.490Z,31.71
2024-04-30T17:28:54.191Z,32.30
2024-04-30T17:31:22.144Z,32.05
2024-04-30T17:37:45.159Z,32.53
2024-04-30T17:40:12.745Z,32.21
2024-04-30T17:42:40.358Z,32.10
2024-04-30T17:45:08.274Z,32.30
2024-04-30T17:47:35.801Z,32.65
2024-04-30T17:50:03.896Z,32.65
2024-04-30T17:52:33.601Z,33.04
2024-04-30T17:55:01.560Z,33.41
2024-04-30T17:57:32.240Z,33.66
2024-04-30T18:00:00.413Z,33.35
2024-04-30T18:02:27.988Z,33.86
2024-04-30T18:04:57.643Z,33.60
2024-04-30T18:07:27.250Z,33.70
2024-04-30T18:09:54.947Z,34.29
2024-04-30T18:12:22.682Z,33.92
2024-04-30T18:14:52.443Z,32.91
2024-04-30T18:17:20.063Z,34.88
2024-04-30T18:19:47.796Z,34.82
2024-04-30T18:22:18.542Z,35.07
2024-04-30T18:24:48.518Z,35.11
2024-04-30T18:27:18.364Z,35.82
2024-04-30T18:29:45.938Z,36.38
2024-04-30T18:32:13.851Z,36.39
2024-04-30T18:34:42.586Z,33.95
2024-04-30T18:37:11.895Z,36.14
2024-04-30T18:39:45.259Z,33.30
2024-04-30T18:42:17.011Z,36.54
2024-04-30T18:44:45.788Z,37.34
2024-04-30T18:47:14.333Z,37.41
2024-04-30T18:49:42.371Z,38.05
2024-04-30T18:52:12.625Z,39.24
2024-04-30T18:54:42.877Z,36.43
2024-04-30T18:57:11.210Z,39.77
2024-04-30T18:59:38.958Z,39.19
2024-04-30T19:02:09.381Z,38.29
2024-04-30T19:04:41.330Z,39.65
2024-04-30T19:07:09.007Z,36.71
2024-04-30T19:09:36.974Z,38.62
2024-04-30T19:12:04.823Z,35.96
2024-04-30T19:14:33.750Z,39.30
2024-04-30T19:17:03.573Z,41.69
2024-04-30T19:19:31.136Z,39.64
2024-04-30T19:21:58.897Z,39.94
2024-04-30T19:24:26.474Z,41.55
2024-04-30T19:26:53.920Z,40.56
2024-04-30T19:29:24.046Z,43.15
2024-04-30T19:31:51.518Z,39.60
2024-04-30T19:34:19.242Z,41.83
2024-04-30T19:36:46.867Z,39.59
2024-04-30T19:39:14.601Z,42.08
2024-04-30T19:41:42.068Z,43.59
2024-04-30T19:44:12.254Z,43.16
2024-04-30T19:46:39.689Z,45.01
2024-04-30T19:49:07.526Z,44.95
2024-04-30T19:51:35.101Z,45.71
2024-04-30T19:54:04.685Z,47.55
2024-04-30T19:56:32.148Z,42.44
2024-04-30T19:58:59.848Z,45.42
2024-04-30T20:01:29.572Z,45.34
2024-04-30T20:03:58.880Z,47.15
2024-04-30T20:06:26.912Z,45.38
2024-04-30T20:08:54.556Z,47.40
2024-04-30T20:11:25.310Z,46.08
2024-04-30T20:13:56.766Z,42.72
2024-04-30T20:16:27.938Z,46.96
2024-04-30T20:18:55.569Z,46.76
2024-04-30T20:21:23.252Z,47.04
2024-04-30T20:23:50.682Z,47.05
2024-04-30T20:26:18.155Z,44.76
2024-04-30T20:28:45.692Z,48.07
2024-04-30T20:31:13.134Z,46.12
2024-04-30T20:33:41.306Z,44.73
2024-04-30T20:36:20.960Z,47.38
2024-04-30T20:38:48.579Z,47.74
2024-04-30T20:41:16.354Z,48.28
2024-04-30T20:43:43.866Z,47.62
2024-04-30T20:46:11.473Z,48.58
2024-04-30T20:48:39.101Z,48.35
2024-04-30T20:51:06.790Z,48.29
2024-04-30T20:53:34.497Z,49.03
2024-04-30T20:56:01.875Z,46.22
2024-04-30T20:58:29.283Z,46.84
2024-04-30T21:00:59.563Z,47.81
2024-04-30T21:03:27.348Z,48.93
2024-04-30T21:05:54.905Z,45.78
2024-04-30T21:08:25.740Z,44.99
2024-04-30T21:10:53.671Z,46.12
2024-04-30T21:13:21.504Z,48.89
2024-04-30T21:15:49.090Z,47.48
2024-04-30T21:18:16.738Z,49.26
2024-04-30T21:20:44.314Z,49.86
2024-04-30T21:23:12.395Z,49.22
2024-04-30T21:25:41.164Z,49.77
2024-04-30T21:28:11.676Z,50.15
2024-04-30T21:30:39.126Z,50.65
2024-04-30T21:33:06.904Z,50.40
2024-04-30T21:35:35.023Z,47.86
2024-04-30T21:38:02.475Z,47.93
2024-04-30T21:40:29.906Z,45.10
2024-04-30T21:42:57.399Z,42.87
2024-04-30T21:45:24.927Z,41.82
2024-04-30T21:47:52.413Z,40.03
2024-04-30T21:50:19.954Z,42.67
2024-04-30T21:52:47.763Z,43.03
2024-04-30T21:55:15.252Z,41.03
2024-04-30T21:57:42.779Z,40.40
2024-04-30T22:00:14.332Z,40.99
2024-04-30T22:02:41.965Z,44.12
2024-04-30T22:05:09.465Z,46.84
2024-04-30T22:07:36.938Z,45.13
2024-04-30T22:10:04.726Z,43.90
2024-04-30T22:12:32.492Z,39.13
2024-04-30T22:15:00.136Z,39.22
2024-04-30T22:17:27.600Z,38.65
2024-04-30T22:19:57.437Z,41.75
2024-04-30T22:22:24.923Z,42.79
2024-04-30T22:24:52.428Z,40.80
2024-04-30T22:27:19.915Z,40.45
2024-04-30T22:29:50.278Z,37.90
2024-04-30T22:32:20.642Z,41.16
2024-04-30T22:34:48.142Z,43.33
2024-04-30T22:37:15.939Z,47.41
2024-04-30T22:39:43.460Z,42.06
2024-04-30T22:42:11.015Z,40.70
2024-04-30T22:44:38.413Z,39.69
2024-04-30T22:47:05.876Z,38.55
2024-04-30T22:49:33.562Z,37.62
2024-04-30T22:52:00.943Z,37.67
2024-04-30T22:54:28.374Z,37.16
2024-04-30T22:56:55.870Z,38.51
2024-04-30T22:59:23.334Z,37.41
2024-04-30T23:01:50.876Z,38.67
2024-04-30T23:04:18.716Z,37.86
2024-04-30T23:06:46.233Z,39.04
2024-04-30T23:09:13.693Z,38.42
2024-04-30T23:11:41.196Z,37.87
2024-04-30T23:14:08.581Z,37.68
2024-04-30T23:16:36.032Z,37.80
2024-04-30T23:19:03.601Z,38.83
2024-04-30T23:21:31.153Z,38.96
2024-04-30T23:23:58.604Z,41.03
2024-04-30T23:26:26.102Z,38.77
2024-04-30T23:28:53.528Z,38.80
2024-04-30T23:31:21.036Z,39.24
2024-04-30T23:33:48.615Z,39.49
2024-04-30T23:36:16.178Z,39.62
2024-04-30T23:38:43.629Z,39.43
2024-04-30T23:41:11.083Z,40.96
2024-04-30T23:43:39.163Z,39.40
2024-04-30T23:46:10.391Z,44.68
2024-04-30T23:48:37.927Z,43.16
2024-04-30T23:51:10.628Z,42.40
2024-04-30T23:53:40.411Z,40.42
2024-04-30T23:56:08.055Z,46.58
2024-04-30T23:58:35.554Z,40.69
